HRYR/KGL METAR and TAF weather

Enter ICAO airport designator
Station Type Date Time Source
HRYR METAR 2022/12/01 00:30 UTC NOAA

HRYR 010030Z VRB02KT 9999 SCT025 SCT100 17/17 Q1017 NOSIG


Station Type Date Time Source
HRYR Decoded METAR 2022/12/01 00:30 UTC NOAA

Kigali, Rwanda (HRYR) 01-58S 030-07E 1497M
Nov 30, 2022 - 07:30 PM EST / 2022.12.01 0030 UTC
Wind: Variable at 2 MPH (2 KT):0
Visibility: greater than 7 mile(s):0
Sky conditions: partly cloudy
Temperature: 62 F (17 C)
Dew Point: 62 F (17 C)
Relative Humidity: 100%
Pressure (altimeter): 30.03 in. Hg (1017 hPa)
ob: HRYR 010030Z VRB02KT 9999 SCT025 SCT100 17/17 Q1017 NOSIG
cycle: 0

Station Type Date Time Source
HRYR TAF 2022/11/30 18:54 UTC NOAA

TAF HRYR 301700Z 3018/0124 27005KT 9999 SCT025 BKN100
BECMG 0102/0105 00000KT 3000 BR FEW010 SCT023 FM 010900 17006KT 9999 BKN023
TEMPO 0113/0117 09012KT TSRA FEW023CB BKN025
BECMG 0119/0122 24005KT NSW SCT025 SCT100

Example: see airport list